sensor_id;sensor_type;location;lat;lon;timestamp;temperature;humidity
33139;DHT22;19501;50.948;5.316;2022-11-06T00:00:03;9.60;99.90
33139;DHT22;19501;50.948;5.316;2022-11-06T00:02:29;9.60;99.90
33139;DHT22;19501;50.948;5.316;2022-11-06T00:04:55;9.50;99.90
33139;DHT22;19501;50.948;5.316;2022-11-06T00:07:45;9.50;99.90
33139;DHT22;19501;50.948;5.316;2022-11-06T00:10:12;9.50;99.90
33139;DHT22;19501;50.948;5.316;2022-11-06T00:12:39;9.60;99.90
33139;DHT22;19501;50.948;5.316;2022-11-06T00:15:05;9.60;99.90
33139;DHT22;19501;50.948;5.316;2022-11-06T00:17:31;9.50;99.90
33139;DHT22;19501;50.948;5.316;2022-11-06T00:19:57;9.60;99.90
33139;DHT22;19501;50.948;5.316;2022-11-06T00:22:22;9.60;99.90
33139;DHT22;19501;50.948;5.316;2022-11-06T00:24:48;9.60;99.90
33139;DHT22;19501;50.948;5.316;2022-11-06T00:27:15;9.60;99.90
33139;DHT22;19501;50.948;5.316;2022-11-06T00:29:41;9.50;99.90
33139;DHT22;19501;50.948;5.316;2022-11-06T00:32:09;9.60;99.90
33139;DHT22;19501;50.948;5.316;2022-11-06T00:34:35;9.60;99.90
33139;DHT22;19501;50.948;5.316;2022-11-06T00:37:01;9.60;99.90
33139;DHT22;19501;50.948;5.316;2022-11-06T00:39:27;9.70;99.90
33139;DHT22;19501;50.948;5.316;2022-11-06T00:41:52;9.70;99.90
33139;DHT22;19501;50.948;5.316;2022-11-06T00:44:18;9.70;99.90
33139;DHT22;19501;50.948;5.316;2022-11-06T00:46:44;9.70;99.90
33139;DHT22;19501;50.948;5.316;2022-11-06T00:49:09;9.70;99.90
33139;DHT22;19501;50.948;5.316;2022-11-06T00:51:37;9.70;99.90
33139;DHT22;19501;50.948;5.316;2022-11-06T00:54:10;9.80;99.90
33139;DHT22;19501;50.948;5.316;2022-11-06T00:56:36;9.80;99.90
33139;DHT22;19501;50.948;5.316;2022-11-06T00:59:04;9.70;99.90
33139;DHT22;19501;50.948;5.316;2022-11-06T01:01:33;9.80;99.90
33139;DHT22;19501;50.948;5.316;2022-11-06T01:04:02;9.80;99.90
33139;DHT22;19501;50.948;5.316;2022-11-06T01:06:31;9.80;99.90
33139;DHT22;19501;50.948;5.316;2022-11-06T01:08:57;9.80;99.90
33139;DHT22;19501;50.948;5.316;2022-11-06T01:11:28;9.90;99.90
33139;DHT22;19501;50.948;5.316;2022-11-06T01:13:56;9.90;99.90
33139;DHT22;19501;50.948;5.316;2022-11-06T01:16:23;9.90;99.90
33139;DHT22;19501;50.948;5.316;2022-11-06T01:18:50;9.90;99.90
33139;DHT22;19501;50.948;5.316;2022-11-06T01:21:27;10.00;99.90
33139;DHT22;19501;50.948;5.316;2022-11-06T01:24:00;9.90;99.90
33139;DHT22;19501;50.948;5.316;2022-11-06T01:26:26;10.00;99.90
33139;DHT22;19501;50.948;5.316;2022-11-06T01:28:53;10.00;99.90
33139;DHT22;19501;50.948;5.316;2022-11-06T01:31:23;10.00;99.90
33139;DHT22;19501;50.948;5.316;2022-11-06T01:33:49;10.00;99.90
33139;DHT22;19501;50.948;5.316;2022-11-06T01:36:17;10.10;99.90
33139;DHT22;19501;50.948;5.316;2022-11-06T01:38:45;10.00;99.90
33139;DHT22;19501;50.948;5.316;2022-11-06T01:41:23;10.10;99.90
33139;DHT22;19501;50.948;5.316;2022-11-06T01:43:52;10.10;99.90
33139;DHT22;19501;50.948;5.316;2022-11-06T01:46:24;10.10;99.90
33139;DHT22;19501;50.948;5.316;2022-11-06T01:51:23;10.10;99.90
33139;DHT22;19501;50.948;5.316;2022-11-06T01:53:51;10.10;99.90
33139;DHT22;19501;50.948;5.316;2022-11-06T01:56:17;10.10;99.90
33139;DHT22;19501;50.948;5.316;2022-11-06T01:58:45;10.20;99.90
33139;DHT22;19501;50.948;5.316;2022-11-06T02:01:14;10.20;99.90
33139;DHT22;19501;50.948;5.316;2022-11-06T02:03:45;10.20;99.90
33139;DHT22;19501;50.948;5.316;2022-11-06T02:06:15;10.10;99.90
33139;DHT22;19501;50.948;5.316;2022-11-06T02:08:40;10.20;99.90
33139;DHT22;19501;50.948;5.316;2022-11-06T02:11:06;10.20;99.90
33139;DHT22;19501;50.948;5.316;2022-11-06T02:14:00;10.20;99.90
33139;DHT22;19501;50.948;5.316;2022-11-06T02:27:43;10.20;99.90
33139;DHT22;19501;50.948;5.316;2022-11-06T02:30:13;10.10;99.90
33139;DHT22;19501;50.948;5.316;2022-11-06T02:32:58;10.10;99.90
33139;DHT22;19501;50.948;5.316;2022-11-06T02:35:30;10.10;99.90
33139;DHT22;19501;50.948;5.316;2022-11-06T02:38:06;10.10;99.90
33139;DHT22;19501;50.948;5.316;2022-11-06T02:40:36;10.20;99.90
33139;DHT22;19501;50.948;5.316;2022-11-06T02:43:06;10.20;99.90
33139;DHT22;19501;50.948;5.316;2022-11-06T02:45:38;10.20;99.90
33139;DHT22;19501;50.948;5.316;2022-11-06T02:48:06;10.20;99.90
33139;DHT22;19501;50.948;5.316;2022-11-06T02:50:39;10.10;99.90
33139;DHT22;19501;50.948;5.316;2022-11-06T02:53:08;10.10;99.90
33139;DHT22;19501;50.948;5.316;2022-11-06T02:55:36;10.20;99.90
33139;DHT22;19501;50.948;5.316;2022-11-06T02:58:09;10.20;99.90
33139;DHT22;19501;50.948;5.316;2022-11-06T03:00:37;10.10;99.90
33139;DHT22;19501;50.948;5.316;2022-11-06T03:03:23;10.10;99.90
33139;DHT22;19501;50.948;5.316;2022-11-06T03:06:00;10.10;99.90
33139;DHT22;19501;50.948;5.316;2022-11-06T03:08:33;10.20;99.90
33139;DHT22;19501;50.948;5.316;2022-11-06T03:16:55;10.30;99.90
33139;DHT22;19501;50.948;5.316;2022-11-06T03:19:35;10.30;99.90
33139;DHT22;19501;50.948;5.316;2022-11-06T03:27:58;10.30;99.90
33139;DHT22;19501;50.948;5.316;2022-11-06T03:30:26;10.30;99.90
33139;DHT22;19501;50.948;5.316;2022-11-06T03:33:20;10.30;99.90
33139;DHT22;19501;50.948;5.316;2022-11-06T03:35:56;10.20;99.90
33139;DHT22;19501;50.948;5.316;2022-11-06T03:38:37;10.30;99.90
33139;DHT22;19501;50.948;5.316;2022-11-06T03:41:09;10.30;99.90
33139;DHT22;19501;50.948;5.316;2022-11-06T03:43:37;10.30;99.90
33139;DHT22;19501;50.948;5.316;2022-11-06T03:46:06;10.30;99.90
33139;DHT22;19501;50.948;5.316;2022-11-06T03:48:52;10.30;99.90
33139;DHT22;19501;50.948;5.316;2022-11-06T03:51:23;10.40;99.90
33139;DHT22;19501;50.948;5.316;2022-11-06T03:54:02;10.30;99.90
33139;DHT22;19501;50.948;5.316;2022-11-06T03:56:44;10.30;99.90
33139;DHT22;19501;50.948;5.316;2022-11-06T03:59:11;10.30;99.90
33139;DHT22;19501;50.948;5.316;2022-11-06T04:01:42;10.30;99.90
33139;DHT22;19501;50.948;5.316;2022-11-06T04:07:00;10.40;99.90
33139;DHT22;19501;50.948;5.316;2022-11-06T04:09:29;10.40;99.90
33139;DHT22;19501;50.948;5.316;2022-11-06T04:12:19;10.30;99.90
33139;DHT22;19501;50.948;5.316;2022-11-06T04:15:05;10.30;99.90
33139;DHT22;19501;50.948;5.316;2022-11-06T04:17:33;10.20;99.90
33139;DHT22;19501;50.948;5.316;2022-11-06T04:20:06;10.20;99.90
33139;DHT22;19501;50.948;5.316;2022-11-06T04:22:52;10.10;99.90
33139;DHT22;19501;50.948;5.316;2022-11-06T04:31:51;10.10;99.90
33139;DHT22;19501;50.948;5.316;2022-11-06T04:37:06;10.10;99.90
33139;DHT22;19501;50.948;5.316;2022-11-06T04:42:45;10.10;99.90
33139;DHT22;19501;50.948;5.316;2022-11-06T04:45:21;10.10;99.90
33139;DHT22;19501;50.948;5.316;2022-11-06T04:47:51;10.20;99.90
33139;DHT22;19501;50.948;5.316;2022-11-06T04:50:19;10.20;99.90
33139;DHT22;19501;50.948;5.316;2022-11-06T04:52:47;10.20;99.90
33139;DHT22;19501;50.948;5.316;2022-11-06T04:55:13;10.20;99.90
33139;DHT22;19501;50.948;5.316;2022-11-06T04:57:39;10.20;99.90
33139;DHT22;19501;50.948;5.316;2022-11-06T05:00:11;10.20;99.90
33139;DHT22;19501;50.948;5.316;2022-11-06T05:02:37;10.20;99.90
33139;DHT22;19501;50.948;5.316;2022-11-06T05:05:02;10.30;99.90
33139;DHT22;19501;50.948;5.316;2022-11-06T05:07:28;10.30;99.90
33139;DHT22;19501;50.948;5.316;2022-11-06T05:09:54;10.30;99.90
33139;DHT22;19501;50.948;5.316;2022-11-06T05:12:20;10.20;99.90
33139;DHT22;19501;50.948;5.316;2022-11-06T05:14:45;10.20;99.90
33139;DHT22;19501;50.948;5.316;2022-11-06T05:17:11;10.20;99.90
33139;DHT22;19501;50.948;5.316;2022-11-06T05:19:37;10.20;99.90
33139;DHT22;19501;50.948;5.316;2022-11-06T05:22:02;10.20;99.90
33139;DHT22;19501;50.948;5.316;2022-11-06T05:24:47;10.30;99.90
33139;DHT22;19501;50.948;5.316;2022-11-06T05:27:12;10.20;99.90
33139;DHT22;19501;50.948;5.316;2022-11-06T05:29:38;10.10;99.90
33139;DHT22;19501;50.948;5.316;2022-11-06T05:32:04;10.10;99.90
33139;DHT22;19501;50.948;5.316;2022-11-06T05:34:32;10.20;99.90
33139;DHT22;19501;50.948;5.316;2022-11-06T05:37:18;10.20;99.90
33139;DHT22;19501;50.948;5.316;2022-11-06T05:39:44;10.10;99.90
33139;DHT22;19501;50.948;5.316;2022-11-06T05:42:10;10.10;99.90
33139;DHT22;19501;50.948;5.316;2022-11-06T05:44:38;10.10;99.90
33139;DHT22;19501;50.948;5.316;2022-11-06T05:47:04;10.20;99.90
33139;DHT22;19501;50.948;5.316;2022-11-06T05:49:30;10.20;99.90
33139;DHT22;19501;50.948;5.316;2022-11-06T05:51:55;10.10;99.90
33139;DHT22;19501;50.948;5.316;2022-11-06T05:54:21;10.10;99.90
33139;DHT22;19501;50.948;5.316;2022-11-06T05:56:46;10.10;99.90
33139;DHT22;19501;50.948;5.316;2022-11-06T05:59:12;10.10;99.90
33139;DHT22;19501;50.948;5.316;2022-11-06T06:01:38;10.00;99.90
33139;DHT22;19501;50.948;5.316;2022-11-06T06:04:03;10.00;99.90
33139;DHT22;19501;50.948;5.316;2022-11-06T06:06:29;9.90;99.90
33139;DHT22;19501;50.948;5.316;2022-11-06T06:08:55;9.90;99.90
33139;DHT22;19501;50.948;5.316;2022-11-06T06:11:20;10.10;99.90
33139;DHT22;19501;50.948;5.316;2022-11-06T06:13:46;10.00;99.90
33139;DHT22;19501;50.948;5.316;2022-11-06T06:16:12;10.10;99.90
33139;DHT22;19501;50.948;5.316;2022-11-06T06:18:38;10.20;99.90
33139;DHT22;19501;50.948;5.316;2022-11-06T06:21:04;10.20;99.90
33139;DHT22;19501;50.948;5.316;2022-11-06T06:23:29;10.20;99.90
33139;DHT22;19501;50.948;5.316;2022-11-06T06:25:56;10.10;99.90
33139;DHT22;19501;50.948;5.316;2022-11-06T06:28:21;10.10;99.90
33139;DHT22;19501;50.948;5.316;2022-11-06T06:30:47;10.10;99.90
33139;DHT22;19501;50.948;5.316;2022-11-06T06:33:13;10.10;99.90
33139;DHT22;19501;50.948;5.316;2022-11-06T06:35:39;10.10;99.90
33139;DHT22;19501;50.948;5.316;2022-11-06T06:38:04;10.10;99.90
33139;DHT22;19501;50.948;5.316;2022-11-06T06:40:30;10.00;99.90
33139;DHT22;19501;50.948;5.316;2022-11-06T06:42:56;10.00;99.90
33139;DHT22;19501;50.948;5.316;2022-11-06T06:45:23;10.00;99.90
33139;DHT22;19501;50.948;5.316;2022-11-06T06:47:49;10.00;99.90
33139;DHT22;19501;50.948;5.316;2022-11-06T06:50:15;9.90;99.90
33139;DHT22;19501;50.948;5.316;2022-11-06T06:52:40;9.90;99.90
33139;DHT22;19501;50.948;5.316;2022-11-06T06:55:06;9.90;99.90
33139;DHT22;19501;50.948;5.316;2022-11-06T06:57:32;9.90;99.90
33139;DHT22;19501;50.948;5.316;2022-11-06T06:59:58;9.90;99.90
33139;DHT22;19501;50.948;5.316;2022-11-06T07:02:23;9.90;99.90
33139;DHT22;19501;50.948;5.316;2022-11-06T07:04:54;9.90;99.90
33139;DHT22;19501;50.948;5.316;2022-11-06T07:07:19;9.90;99.90
33139;DHT22;19501;50.948;5.316;2022-11-06T07:09:45;10.00;99.90
33139;DHT22;19501;50.948;5.316;2022-11-06T07:12:11;10.10;99.90
33139;DHT22;19501;50.948;5.316;2022-11-06T07:14:36;10.00;99.90
33139;DHT22;19501;50.948;5.316;2022-11-06T07:17:02;10.10;99.90
33139;DHT22;19501;50.948;5.316;2022-11-06T07:19:27;10.10;99.90
33139;DHT22;19501;50.948;5.316;2022-11-06T07:21:53;10.10;99.90
33139;DHT22;19501;50.948;5.316;2022-11-06T07:24:19;10.10;99.90
33139;DHT22;19501;50.948;5.316;2022-11-06T07:26:45;10.10;99.90
33139;DHT22;19501;50.948;5.316;2022-11-06T07:29:11;10.10;99.90
33139;DHT22;19501;50.948;5.316;2022-11-06T07:31:37;10.20;99.90
33139;DHT22;19501;50.948;5.316;2022-11-06T07:34:03;10.30;99.90
33139;DHT22;19501;50.948;5.316;2022-11-06T07:36:29;10.30;99.90
33139;DHT22;19501;50.948;5.316;2022-11-06T07:38:57;10.40;99.90
33139;DHT22;19501;50.948;5.316;2022-11-06T07:41:22;10.40;99.90
33139;DHT22;19501;50.948;5.316;2022-11-06T07:43:48;10.30;99.90
33139;DHT22;19501;50.948;5.316;2022-11-06T07:46:14;10.30;99.90
33139;DHT22;19501;50.948;5.316;2022-11-06T07:48:40;10.40;99.90
33139;DHT22;19501;50.948;5.316;2022-11-06T07:51:08;10.40;99.90
33139;DHT22;19501;50.948;5.316;2022-11-06T07:53:34;10.40;99.90
33139;DHT22;19501;50.948;5.316;2022-11-06T07:56:00;10.40;99.90
33139;DHT22;19501;50.948;5.316;2022-11-06T07:58:26;10.40;99.90
33139;DHT22;19501;50.948;5.316;2022-11-06T08:00:56;10.40;99.90
33139;DHT22;19501;50.948;5.316;2022-11-06T08:03:22;10.50;99.90
33139;DHT22;19501;50.948;5.316;2022-11-06T08:05:48;10.60;99.90
33139;DHT22;19501;50.948;5.316;2022-11-06T08:08:15;10.50;99.90
33139;DHT22;19501;50.948;5.316;2022-11-06T08:10:42;10.60;99.90
33139;DHT22;19501;50.948;5.316;2022-11-06T08:13:16;10.60;99.90
33139;DHT22;19501;50.948;5.316;2022-11-06T08:15:43;10.70;99.90
33139;DHT22;19501;50.948;5.316;2022-11-06T08:18:09;10.80;99.90
33139;DHT22;19501;50.948;5.316;2022-11-06T08:20:36;10.80;99.90
33139;DHT22;19501;50.948;5.316;2022-11-06T08:23:05;10.80;99.90
33139;DHT22;19501;50.948;5.316;2022-11-06T08:25:31;10.80;99.90
33139;DHT22;19501;50.948;5.316;2022-11-06T08:27:59;10.90;99.90
33139;DHT22;19501;50.948;5.316;2022-11-06T08:30:26;11.00;99.90
33139;DHT22;19501;50.948;5.316;2022-11-06T08:32:52;11.10;99.90
33139;DHT22;19501;50.948;5.316;2022-11-06T08:35:18;11.10;99.90
33139;DHT22;19501;50.948;5.316;2022-11-06T08:37:44;11.10;99.90
33139;DHT22;19501;50.948;5.316;2022-11-06T08:40:12;11.20;99.90
33139;DHT22;19501;50.948;5.316;2022-11-06T08:42:38;11.30;99.90
33139;DHT22;19501;50.948;5.316;2022-11-06T08:45:05;11.20;99.90
33139;DHT22;19501;50.948;5.316;2022-11-06T08:47:30;11.30;99.90
33139;DHT22;19501;50.948;5.316;2022-11-06T08:49:58;11.40;99.90
33139;DHT22;19501;50.948;5.316;2022-11-06T08:52:24;11.40;99.90
33139;DHT22;19501;50.948;5.316;2022-11-06T08:54:50;11.40;99.90
33139;DHT22;19501;50.948;5.316;2022-11-06T08:57:16;11.40;99.90
33139;DHT22;19501;50.948;5.316;2022-11-06T08:59:42;11.40;99.90
33139;DHT22;19501;50.948;5.316;2022-11-06T09:02:12;11.40;99.90
33139;DHT22;19501;50.948;5.316;2022-11-06T09:04:38;11.40;99.90
33139;DHT22;19501;50.948;5.316;2022-11-06T09:07:04;11.30;99.90
33139;DHT22;19501;50.948;5.316;2022-11-06T09:09:30;11.30;99.90
33139;DHT22;19501;50.948;5.316;2022-11-06T09:12:00;11.40;99.90
33139;DHT22;19501;50.948;5.316;2022-11-06T09:14:26;11.50;99.90
33139;DHT22;19501;50.948;5.316;2022-11-06T09:16:53;11.40;99.90
33139;DHT22;19501;50.948;5.316;2022-11-06T09:19:19;11.40;99.90
33139;DHT22;19501;50.948;5.316;2022-11-06T09:21:45;11.40;99.90
33139;DHT22;19501;50.948;5.316;2022-11-06T09:24:11;11.60;99.90
33139;DHT22;19501;50.948;5.316;2022-11-06T09:26:37;11.60;99.90
33139;DHT22;19501;50.948;5.316;2022-11-06T09:29:03;11.70;99.90
33139;DHT22;19501;50.948;5.316;2022-11-06T09:31:28;11.80;99.90
33139;DHT22;19501;50.948;5.316;2022-11-06T09:33:55;11.80;99.90
33139;DHT22;19501;50.948;5.316;2022-11-06T09:36:20;11.70;99.90
33139;DHT22;19501;50.948;5.316;2022-11-06T10:09:50;12.10;99.90
33139;DHT22;19501;50.948;5.316;2022-11-06T10:12:28;12.20;99.90
33139;DHT22;19501;50.948;5.316;2022-11-06T10:18:00;12.10;99.90
33139;DHT22;19501;50.948;5.316;2022-11-06T10:20:30;12.10;99.90
33139;DHT22;19501;50.948;5.316;2022-11-06T10:28:14;12.40;99.90
33139;DHT22;19501;50.948;5.316;2022-11-06T10:31:14;12.30;99.90
33139;DHT22;19501;50.948;5.316;2022-11-06T10:33:53;12.30;99.90
33139;DHT22;19501;50.948;5.316;2022-11-06T10:36:45;12.40;99.90
33139;DHT22;19501;50.948;5.316;2022-11-06T10:39:16;12.30;99.90
33139;DHT22;19501;50.948;5.316;2022-11-06T10:41:51;12.40;99.90
33139;DHT22;19501;50.948;5.316;2022-11-06T10:44:22;12.40;99.90
33139;DHT22;19501;50.948;5.316;2022-11-06T10:46:53;12.50;99.90
33139;DHT22;19501;50.948;5.316;2022-11-06T10:52:09;12.40;99.90
33139;DHT22;19501;50.948;5.316;2022-11-06T10:59:48;12.80;99.90
33139;DHT22;19501;50.948;5.316;2022-11-06T11:02:30;12.70;99.90
33139;DHT22;19501;50.948;5.316;2022-11-06T11:04:57;13.00;99.90
33139;DHT22;19501;50.948;5.316;2022-11-06T11:07:23;13.10;99.90
33139;DHT22;19501;50.948;5.316;2022-11-06T11:09:49;13.10;99.90
33139;DHT22;19501;50.948;5.316;2022-11-06T11:12:21;13.00;99.90
33139;DHT22;19501;50.948;5.316;2022-11-06T11:15:24;13.00;99.90
33139;DHT22;19501;50.948;5.316;2022-11-06T11:21:00;13.30;99.90
33139;DHT22;19501;50.948;5.316;2022-11-06T11:23:28;13.30;99.90
33139;DHT22;19501;50.948;5.316;2022-11-06T11:26:18;13.00;99.90
33139;DHT22;19501;50.948;5.316;2022-11-06T11:28:59;13.00;99.90
33139;DHT22;19501;50.948;5.316;2022-11-06T11:31:32;13.00;99.90
33139;DHT22;19501;50.948;5.316;2022-11-06T11:34:04;12.90;99.90
33139;DHT22;19501;50.948;5.316;2022-11-06T11:36:56;12.80;99.90
33139;DHT22;19501;50.948;5.316;2022-11-06T11:39:34;12.80;99.90
33139;DHT22;19501;50.948;5.316;2022-11-06T11:42:29;12.80;99.90
33139;DHT22;19501;50.948;5.316;2022-11-06T11:45:19;12.80;99.90
33139;DHT22;19501;50.948;5.316;2022-11-06T11:47:48;12.80;99.90
33139;DHT22;19501;50.948;5.316;2022-11-06T11:50:31;12.70;99.90
33139;DHT22;19501;50.948;5.316;2022-11-06T11:53:09;12.70;99.90
33139;DHT22;19501;50.948;5.316;2022-11-06T11:55:39;12.90;99.90
33139;DHT22;19501;50.948;5.316;2022-11-06T11:58:17;12.90;99.90
33139;DHT22;19501;50.948;5.316;2022-11-06T12:00:59;13.00;99.90
33139;DHT22;19501;50.948;5.316;2022-11-06T12:03:43;13.00;99.90
33139;DHT22;19501;50.948;5.316;2022-11-06T12:06:13;12.70;99.90
33139;DHT22;19501;50.948;5.316;2022-11-06T12:08:51;12.60;99.90
33139;DHT22;19501;50.948;5.316;2022-11-06T12:11:29;12.50;99.90
33139;DHT22;19501;50.948;5.316;2022-11-06T12:16:48;12.50;99.90
33139;DHT22;19501;50.948;5.316;2022-11-06T12:19:16;12.50;99.90
33139;DHT22;19501;50.948;5.316;2022-11-06T12:21:46;12.50;99.90
33139;DHT22;19501;50.948;5.316;2022-11-06T12:24:19;12.50;99.90
33139;DHT22;19501;50.948;5.316;2022-11-06T12:26:54;12.60;99.90
33139;DHT22;19501;50.948;5.316;2022-11-06T12:29:37;12.50;99.90
33139;DHT22;19501;50.948;5.316;2022-11-06T12:32:40;12.40;99.90
33139;DHT22;19501;50.948;5.316;2022-11-06T12:35:31;12.30;99.90
33139;DHT22;19501;50.948;5.316;2022-11-06T12:57:37;11.90;99.90
33139;DHT22;19501;50.948;5.316;2022-11-06T13:00:24;11.80;99.90
33139;DHT22;19501;50.948;5.316;2022-11-06T13:06:04;11.50;99.90
33139;DHT22;19501;50.948;5.316;2022-11-06T13:11:35;11.10;99.90
33139;DHT22;19501;50.948;5.316;2022-11-06T13:14:34;11.00;99.90
33139;DHT22;19501;50.948;5.316;2022-11-06T13:17:06;10.90;99.90
33139;DHT22;19501;50.948;5.316;2022-11-06T13:22:14;10.70;99.90
33139;DHT22;19501;50.948;5.316;2022-11-06T13:24:50;10.50;99.90
33139;DHT22;19501;50.948;5.316;2022-11-06T13:27:26;10.40;99.90
33139;DHT22;19501;50.948;5.316;2022-11-06T13:29:58;10.30;99.90
33139;DHT22;19501;50.948;5.316;2022-11-06T13:32:26;10.20;99.90
33139;DHT22;19501;50.948;5.316;2022-11-06T13:34:55;10.20;99.90
33139;DHT22;19501;50.948;5.316;2022-11-06T13:37:37;10.10;99.90
33139;DHT22;19501;50.948;5.316;2022-11-06T13:40:20;10.10;99.90
33139;DHT22;19501;50.948;5.316;2022-11-06T13:45:55;10.00;99.90
33139;DHT22;19501;50.948;5.316;2022-11-06T13:51:21;9.90;99.90
33139;DHT22;19501;50.948;5.316;2022-11-06T13:54:00;9.90;99.90
33139;DHT22;19501;50.948;5.316;2022-11-06T14:02:28;9.80;99.90
33139;DHT22;19501;50.948;5.316;2022-11-06T14:07:32;9.80;99.90
33139;DHT22;19501;50.948;5.316;2022-11-06T14:09:58;9.70;99.90
33139;DHT22;19501;50.948;5.316;2022-11-06T14:12:27;9.70;99.90
33139;DHT22;19501;50.948;5.316;2022-11-06T14:15:14;9.60;99.90
33139;DHT22;19501;50.948;5.316;2022-11-06T14:17:50;9.70;99.90
33139;DHT22;19501;50.948;5.316;2022-11-06T14:26:09;9.60;99.90
33139;DHT22;19501;50.948;5.316;2022-11-06T14:28:43;9.50;99.90
33139;DHT22;19501;50.948;5.316;2022-11-06T14:31:10;9.50;99.90
33139;DHT22;19501;50.948;5.316;2022-11-06T14:33:58;9.50;99.90
33139;DHT22;19501;50.948;5.316;2022-11-06T14:38:53;9.50;99.90
33139;DHT22;19501;50.948;5.316;2022-11-06T14:46:35;9.50;99.90
33139;DHT22;19501;50.948;5.316;2022-11-06T14:49:11;9.50;99.90
33139;DHT22;19501;50.948;5.316;2022-11-06T14:51:56;9.60;99.90
33139;DHT22;19501;50.948;5.316;2022-11-06T14:54:23;9.50;99.90
33139;DHT22;19501;50.948;5.316;2022-11-06T14:56:53;9.50;99.90
33139;DHT22;19501;50.948;5.316;2022-11-06T14:59:42;9.40;99.90
33139;DHT22;19501;50.948;5.316;2022-11-06T15:02:25;9.40;99.90
33139;DHT22;19501;50.948;5.316;2022-11-06T15:05:00;9.40;99.90
33139;DHT22;19501;50.948;5.316;2022-11-06T15:07:34;9.30;99.90
33139;DHT22;19501;50.948;5.316;2022-11-06T15:16:00;9.30;99.90
33139;DHT22;19501;50.948;5.316;2022-11-06T15:18:28;9.20;99.90
33139;DHT22;19501;50.948;5.316;2022-11-06T15:21:01;9.10;99.90
33139;DHT22;19501;50.948;5.316;2022-11-06T15:28:31;9.20;99.90
33139;DHT22;19501;50.948;5.316;2022-11-06T15:31:10;9.20;99.90
33139;DHT22;19501;50.948;5.316;2022-11-06T15:36:18;9.10;99.90
33139;DHT22;19501;50.948;5.316;2022-11-06T15:38:45;9.20;99.90
33139;DHT22;19501;50.948;5.316;2022-11-06T15:41:15;9.20;99.90
33139;DHT22;19501;50.948;5.316;2022-11-06T15:43:49;9.20;99.90
33139;DHT22;19501;50.948;5.316;2022-11-06T15:46:26;9.20;99.90
33139;DHT22;19501;50.948;5.316;2022-11-06T15:49:15;9.20;99.90
33139;DHT22;19501;50.948;5.316;2022-11-06T15:51:59;9.20;99.90
33139;DHT22;19501;50.948;5.316;2022-11-06T15:54:39;9.10;99.90
33139;DHT22;19501;50.948;5.316;2022-11-06T15:57:26;9.10;99.90
33139;DHT22;19501;50.948;5.316;2022-11-06T16:02:52;9.10;99.90
33139;DHT22;19501;50.948;5.316;2022-11-06T16:05:24;9.00;99.90
33139;DHT22;19501;50.948;5.316;2022-11-06T16:07:51;9.00;99.90
33139;DHT22;19501;50.948;5.316;2022-11-06T16:10:21;9.00;99.90
33139;DHT22;19501;50.948;5.316;2022-11-06T16:12:49;8.90;99.90
33139;DHT22;19501;50.948;5.316;2022-11-06T16:20:53;8.80;99.90
33139;DHT22;19501;50.948;5.316;2022-11-06T16:23:32;8.80;99.90
33139;DHT22;19501;50.948;5.316;2022-11-06T16:26:11;8.80;99.90
33139;DHT22;19501;50.948;5.316;2022-11-06T16:28:42;8.70;99.90
33139;DHT22;19501;50.948;5.316;2022-11-06T16:31:20;8.70;99.90
33139;DHT22;19501;50.948;5.316;2022-11-06T16:34:04;8.70;99.90
33139;DHT22;19501;50.948;5.316;2022-11-06T16:36:48;8.80;99.90
33139;DHT22;19501;50.948;5.316;2022-11-06T16:42:18;8.70;99.90
33139;DHT22;19501;50.948;5.316;2022-11-06T16:44:50;8.70;99.90
33139;DHT22;19501;50.948;5.316;2022-11-06T16:47:22;8.70;99.90
33139;DHT22;19501;50.948;5.316;2022-11-06T16:49:50;8.80;99.90
33139;DHT22;19501;50.948;5.316;2022-11-06T17:03:00;8.90;99.90
33139;DHT22;19501;50.948;5.316;2022-11-06T17:05:28;8.90;99.90
33139;DHT22;19501;50.948;5.316;2022-11-06T17:10:57;8.90;99.90
33139;DHT22;19501;50.948;5.316;2022-11-06T17:13:30;9.00;99.90
33139;DHT22;19501;50.948;5.316;2022-11-06T17:16:01;9.00;99.90
33139;DHT22;19501;50.948;5.316;2022-11-06T17:18:36;9.10;99.90
33139;DHT22;19501;50.948;5.316;2022-11-06T17:21:25;9.10;99.90
33139;DHT22;19501;50.948;5.316;2022-11-06T17:23:52;9.20;99.90
33139;DHT22;19501;50.948;5.316;2022-11-06T17:26:29;9.20;99.90
33139;DHT22;19501;50.948;5.316;2022-11-06T17:28:56;9.20;99.90
33139;DHT22;19501;50.948;5.316;2022-11-06T17:31:23;9.30;99.90
33139;DHT22;19501;50.948;5.316;2022-11-06T17:33:50;9.30;99.90
33139;DHT22;19501;50.948;5.316;2022-11-06T17:36:22;9.30;99.90
33139;DHT22;19501;50.948;5.316;2022-11-06T17:38:52;9.30;99.90
33139;DHT22;19501;50.948;5.316;2022-11-06T17:41:19;9.40;99.90
33139;DHT22;19501;50.948;5.316;2022-11-06T17:44:10;9.50;99.90
33139;DHT22;19501;50.948;5.316;2022-11-06T17:46:44;9.50;99.90
33139;DHT22;19501;50.948;5.316;2022-11-06T17:49:12;9.40;99.90
33139;DHT22;19501;50.948;5.316;2022-11-06T17:51:38;9.50;99.90
33139;DHT22;19501;50.948;5.316;2022-11-06T17:54:33;9.50;99.90
33139;DHT22;19501;50.948;5.316;2022-11-06T17:57:03;9.50;99.90
33139;DHT22;19501;50.948;5.316;2022-11-06T17:59:28;9.50;99.90
33139;DHT22;19501;50.948;5.316;2022-11-06T18:01:55;9.50;99.90
33139;DHT22;19501;50.948;5.316;2022-11-06T18:04:22;9.60;99.90
33139;DHT22;19501;50.948;5.316;2022-11-06T18:06:51;9.60;99.90
33139;DHT22;19501;50.948;5.316;2022-11-06T18:09:17;9.70;99.90
33139;DHT22;19501;50.948;5.316;2022-11-06T18:11:43;9.70;99.90
33139;DHT22;19501;50.948;5.316;2022-11-06T18:14:10;9.80;99.90
33139;DHT22;19501;50.948;5.316;2022-11-06T18:16:37;9.80;99.90
33139;DHT22;19501;50.948;5.316;2022-11-06T18:19:08;9.80;99.90
33139;DHT22;19501;50.948;5.316;2022-11-06T18:21:34;9.80;99.90
33139;DHT22;19501;50.948;5.316;2022-11-06T18:24:00;9.80;99.90
33139;DHT22;19501;50.948;5.316;2022-11-06T18:26:28;9.80;99.90
33139;DHT22;19501;50.948;5.316;2022-11-06T18:28:54;10.00;99.90
33139;DHT22;19501;50.948;5.316;2022-11-06T18:31:19;10.00;99.90
33139;DHT22;19501;50.948;5.316;2022-11-06T18:33:45;10.10;99.90
33139;DHT22;19501;50.948;5.316;2022-11-06T18:36:12;10.00;99.90
33139;DHT22;19501;50.948;5.316;2022-11-06T18:38:38;10.10;99.90
33139;DHT22;19501;50.948;5.316;2022-11-06T18:41:12;10.00;99.90
33139;DHT22;19501;50.948;5.316;2022-11-06T18:43:38;10.10;99.90
33139;DHT22;19501;50.948;5.316;2022-11-06T18:46:05;10.10;99.90
33139;DHT22;19501;50.948;5.316;2022-11-06T18:48:32;10.10;99.90
33139;DHT22;19501;50.948;5.316;2022-11-06T18:51:07;10.10;99.90
33139;DHT22;19501;50.948;5.316;2022-11-06T18:53:34;10.10;99.90
33139;DHT22;19501;50.948;5.316;2022-11-06T18:56:00;10.10;99.90
33139;DHT22;19501;50.948;5.316;2022-11-06T18:58:26;10.10;99.90
33139;DHT22;19501;50.948;5.316;2022-11-06T19:00:52;10.10;99.90
33139;DHT22;19501;50.948;5.316;2022-11-06T19:03:18;10.10;99.90
33139;DHT22;19501;50.948;5.316;2022-11-06T19:05:50;10.20;99.90